Anchorage/Elmendorf AFB, Alaska
Current Conditions -  °F | °C
As of 2:58 AM on Sunday 25 Jan 2015 (Local Time) from PAED Reporting Station
Few Clouds Few Clouds  
Wind Chill:   Ceiling: Unl
Heat Index:   Visibility: 10mi
Dew Point: -5°   Wind: 3mph
Humidity: 73%   Direction: 50°NE
Pressure: 29.52"   Gusts: NA
Location:  61.25°N, 149.79°W
Report Text: PAED 251158Z AUTO 05003KT 10SM FEW055 M17/M20 A2952 RMK AO2 SLP996 T11661204 11107 21184 52014
Loading
Personal Weather Stations






























Interactive Weather Map New forecast layout! Learn more

10-Day Weather Forecast

Advertisements
Track Severe Weather on mobile